createdAt,value
2018-09-26T00:01:03.642Z,62.68
2018-09-26T00:03:35.525Z,62.52
2018-09-26T00:06:03.771Z,62.68
2018-09-26T00:08:31.948Z,62.97
2018-09-26T00:11:00.144Z,62.74
2018-09-26T00:13:28.364Z,62.59
2018-09-26T00:15:56.561Z,62.29
2018-09-26T00:18:24.762Z,62.09
2018-09-26T00:20:52.975Z,62.05
2018-09-26T00:23:21.172Z,62.73
2018-09-26T00:25:49.355Z,62.73
2018-09-26T00:28:17.566Z,62.82
2018-09-26T00:30:45.795Z,63.11
2018-09-26T00:33:13.992Z,63.15
2018-09-26T00:35:42.184Z,63.27
2018-09-26T00:38:10.399Z,62.46
2018-09-26T00:40:38.579Z,61.88
2018-09-26T00:43:06.791Z,62.19
2018-09-26T00:45:34.984Z,62.92
2018-09-26T00:48:03.158Z,63.30
2018-09-26T00:50:31.367Z,63.65
2018-09-26T00:52:59.552Z,63.80
2018-09-26T00:55:27.788Z,63.88
2018-09-26T00:57:56.002Z,64.33
2018-09-26T01:00:24.216Z,64.36
2018-09-26T01:02:52.413Z,64.30
2018-09-26T01:05:20.604Z,64.26
2018-09-26T01:07:48.777Z,64.18
2018-09-26T01:10:16.972Z,64.09
2018-09-26T01:12:45.178Z,63.83
2018-09-26T01:15:13.352Z,63.88
2018-09-26T01:17:41.567Z,63.51
2018-09-26T01:20:09.904Z,63.36
2018-09-26T01:22:38.120Z,63.51
2018-09-26T01:25:06.458Z,63.50
2018-09-26T01:27:35.308Z,63.57
2018-09-26T01:30:05.371Z,63.66
2018-09-26T01:32:33.748Z,63.57
2018-09-26T01:35:02.290Z,63.76
2018-09-26T01:37:30.483Z,63.54
2018-09-26T01:39:59.013Z,63.56
2018-09-26T01:42:27.474Z,63.40
2018-09-26T01:44:55.647Z,63.41
2018-09-26T01:47:23.836Z,63.50
2018-09-26T01:49:52.024Z,62.98
2018-09-26T01:52:20.208Z,63.06
2018-09-26T01:54:48.399Z,62.96
2018-09-26T01:57:16.655Z,63.08
2018-09-26T01:59:44.851Z,62.78
2018-09-26T02:02:13.036Z,62.49
2018-09-26T02:04:41.251Z,63.23
2018-09-26T02:07:09.599Z,62.01
2018-09-26T02:09:37.791Z,62.56
2018-09-26T02:12:06.328Z,62.89
2018-09-26T02:14:34.539Z,63.05
2018-09-26T02:17:02.739Z,63.18
2018-09-26T02:19:30.934Z,63.46
2018-09-26T02:21:59.134Z,63.30
2018-09-26T02:24:27.311Z,63.50
2018-09-26T02:26:55.520Z,63.01
2018-09-26T02:29:23.709Z,63.34
2018-09-26T02:31:51.929Z,63.52
2018-09-26T02:34:20.141Z,63.57
2018-09-26T02:36:48.336Z,63.42
2018-09-26T02:39:16.543Z,63.54
2018-09-26T02:41:44.727Z,63.53
2018-09-26T02:44:12.931Z,63.28
2018-09-26T02:46:41.118Z,63.46
2018-09-26T02:49:09.315Z,63.01
2018-09-26T02:51:38.403Z,63.35
2018-09-26T02:54:07.489Z,63.35
2018-09-26T02:56:35.968Z,63.13
2018-09-26T02:59:04.168Z,63.07
2018-09-26T03:01:32.358Z,63.00
2018-09-26T03:04:00.593Z,62.96
2018-09-26T03:06:28.783Z,62.96
2018-09-26T03:08:56.960Z,63.38
2018-09-26T03:11:25.140Z,63.40
2018-09-26T03:13:53.348Z,63.33
2018-09-26T03:16:21.570Z,63.18
2018-09-26T03:18:49.756Z,62.58
2018-09-26T03:21:17.952Z,62.48
2018-09-26T03:23:46.139Z,63.07
2018-09-26T03:26:14.339Z,63.00
2018-09-26T03:28:42.515Z,63.41
2018-09-26T03:31:10.700Z,63.09
2018-09-26T03:33:39.048Z,62.70
2018-09-26T03:36:07.101Z,62.70
2018-09-26T03:38:35.289Z,62.87
2018-09-26T03:41:03.551Z,63.01
2018-09-26T03:43:31.721Z,61.96
2018-09-26T03:45:59.924Z,61.96
2018-09-26T03:48:28.111Z,62.25
2018-09-26T03:50:56.308Z,62.81
2018-09-26T03:53:24.504Z,63.18
2018-09-26T03:55:52.726Z,63.50
2018-09-26T03:58:20.917Z,63.64
2018-09-26T04:00:49.104Z,63.31
2018-09-26T04:03:17.302Z,63.15
2018-09-26T04:05:45.496Z,62.99
2018-09-26T04:08:13.688Z,63.34
2018-09-26T04:10:41.878Z,63.15
2018-09-26T04:13:10.216Z,63.12
2018-09-26T04:15:54.539Z,62.73
2018-09-26T04:18:24.240Z,62.58
2018-09-26T04:20:52.944Z,62.58
2018-09-26T04:23:21.140Z,62.74
2018-09-26T04:25:49.320Z,63.18
2018-09-26T04:28:17.562Z,63.40
2018-09-26T04:30:45.775Z,63.57
2018-09-26T04:33:14.275Z,63.49
2018-09-26T04:35:42.180Z,63.49
2018-09-26T04:38:10.819Z,63.30
2018-09-26T04:40:39.371Z,62.94
2018-09-26T04:43:07.605Z,62.84
2018-09-26T04:45:35.785Z,62.54
2018-09-26T04:48:03.979Z,62.31
2018-09-26T04:50:32.395Z,62.25
2018-09-26T04:53:00.608Z,62.42
2018-09-26T04:55:28.813Z,62.29
2018-09-26T04:57:57.214Z,62.35
2018-09-26T05:00:25.747Z,62.29
2018-09-26T05:02:53.952Z,62.42
2018-09-26T05:05:22.167Z,62.39
2018-09-26T05:07:50.374Z,63.03
2018-09-26T05:10:18.584Z,63.25
2018-09-26T05:12:46.814Z,63.07
2018-09-26T05:15:15.243Z,63.40
2018-09-26T05:17:43.431Z,63.57
2018-09-26T05:20:11.646Z,63.61
2018-09-26T05:22:39.890Z,63.42
2018-09-26T05:25:08.087Z,63.78
2018-09-26T05:27:36.651Z,63.70
2018-09-26T05:30:04.947Z,63.92
2018-09-26T05:32:33.142Z,64.20
2018-09-26T05:35:01.976Z,64.12
2018-09-26T05:37:30.174Z,64.13
2018-09-26T05:39:58.374Z,64.04
2018-09-26T05:42:26.585Z,63.92
2018-09-26T05:44:54.783Z,63.19
2018-09-26T05:47:22.963Z,63.46
2018-09-26T05:49:51.152Z,63.44
2018-09-26T05:52:19.339Z,63.48
2018-09-26T05:54:47.550Z,63.38
2018-09-26T05:57:15.740Z,63.52
2018-09-26T05:59:44.022Z,63.56
2018-09-26T06:02:12.156Z,63.71
2018-09-26T06:04:40.352Z,63.38
2018-09-26T06:07:08.572Z,63.46
2018-09-26T06:09:36.798Z,63.50
2018-09-26T06:12:05.023Z,63.29
2018-09-26T06:14:33.211Z,62.58
2018-09-26T06:17:01.415Z,62.50
2018-09-26T06:19:29.611Z,62.18
2018-09-26T06:21:57.837Z,61.84
2018-09-26T06:24:26.004Z,61.25
2018-09-26T06:26:54.204Z,61.05
2018-09-26T06:29:22.399Z,61.02
2018-09-26T06:31:50.606Z,61.28
2018-09-26T06:34:18.872Z,61.50
2018-09-26T06:36:47.100Z,60.88
2018-09-26T06:39:15.324Z,60.88
2018-09-26T06:41:43.536Z,59.98
2018-09-26T06:44:11.746Z,58.95
2018-09-26T06:46:39.973Z,57.56
2018-09-26T06:49:08.176Z,56.71
2018-09-26T06:51:36.375Z,57.80
2018-09-26T06:54:04.673Z,58.98
2018-09-26T06:56:32.999Z,58.26
2018-09-26T06:59:01.224Z,56.79
2018-09-26T07:01:29.403Z,56.17
2018-09-26T07:03:57.660Z,56.45
2018-09-26T07:06:25.883Z,55.57
2018-09-26T07:08:54.104Z,55.84
2018-09-26T07:11:22.288Z,55.94
2018-09-26T07:13:50.501Z,55.99
2018-09-26T07:16:18.676Z,56.37
2018-09-26T07:18:46.883Z,56.07
2018-09-26T07:21:15.072Z,56.14
2018-09-26T07:23:43.252Z,54.76
2018-09-26T07:26:11.452Z,55.48
2018-09-26T07:28:39.660Z,54.95
2018-09-26T07:31:08.111Z,52.97
2018-09-26T07:33:36.295Z,52.94
2018-09-26T07:36:04.498Z,53.48
2018-09-26T07:38:32.722Z,53.56
2018-09-26T07:41:00.865Z,52.90
2018-09-26T07:43:29.050Z,52.63
2018-09-26T07:45:57.255Z,51.72
2018-09-26T07:48:25.459Z,51.30
2018-09-26T07:50:53.670Z,50.74
2018-09-26T07:53:21.878Z,51.44
2018-09-26T07:55:51.783Z,50.28
2018-09-26T07:58:19.971Z,50.72
2018-09-26T08:00:48.141Z,48.76
2018-09-26T08:03:16.348Z,49.20
2018-09-26T08:05:44.547Z,51.05
2018-09-26T08:08:12.742Z,48.84
2018-09-26T08:10:40.930Z,49.04
2018-09-26T08:13:09.120Z,49.67
2018-09-26T08:15:37.489Z,48.38
2018-09-26T08:18:05.726Z,48.11
2018-09-26T08:20:33.916Z,47.94
2018-09-26T08:23:02.139Z,47.86
2018-09-26T08:25:30.319Z,46.95
2018-09-26T08:27:58.505Z,47.58
2018-09-26T08:30:26.687Z,48.73
2018-09-26T08:32:55.062Z,47.69
2018-09-26T08:35:23.552Z,47.33
2018-09-26T08:37:51.758Z,48.29
2018-09-26T08:40:19.960Z,47.11
2018-09-26T08:42:48.139Z,47.17
2018-09-26T08:45:16.388Z,47.18
2018-09-26T08:47:44.583Z,47.36
2018-09-26T08:50:12.771Z,46.61
2018-09-26T08:52:40.988Z,46.42
2018-09-26T08:55:09.199Z,46.53
2018-09-26T08:57:37.424Z,45.67
2018-09-26T09:00:06.423Z,45.48
2018-09-26T09:02:34.612Z,45.08
2018-09-26T09:05:02.819Z,46.11
2018-09-26T09:07:31.019Z,45.11
2018-09-26T09:09:59.202Z,44.98
2018-09-26T09:12:27.393Z,44.03
2018-09-26T09:14:55.585Z,43.29
2018-09-26T09:17:23.790Z,43.86
2018-09-26T09:19:51.992Z,42.55
2018-09-26T09:22:20.215Z,42.83
2018-09-26T09:24:48.406Z,41.67
2018-09-26T09:27:16.641Z,41.40
2018-09-26T09:29:44.812Z,40.08
2018-09-26T09:32:13.077Z,39.90
2018-09-26T09:34:41.250Z,39.44
2018-09-26T09:37:09.443Z,39.57
2018-09-26T09:39:37.643Z,40.14
2018-09-26T09:42:05.846Z,38.62
2018-09-26T09:44:34.109Z,37.85
2018-09-26T09:47:02.236Z,37.83
2018-09-26T09:49:30.440Z,37.83
2018-09-26T09:51:58.631Z,39.04
2018-09-26T09:54:26.825Z,38.20
2018-09-26T09:56:55.136Z,37.71
2018-09-26T09:59:23.323Z,39.15
2018-09-26T10:01:51.509Z,38.87
2018-09-26T10:04:19.716Z,40.17
2018-09-26T10:06:47.900Z,38.79
2018-09-26T10:09:16.116Z,39.36
2018-09-26T10:11:44.314Z,40.66
2018-09-26T10:14:12.573Z,41.07
2018-09-26T10:16:40.702Z,42.38
2018-09-26T10:19:08.883Z,41.84
2018-09-26T10:21:37.078Z,38.18
2018-09-26T10:24:05.326Z,39.22
2018-09-26T10:26:33.495Z,38.32
2018-09-26T10:29:01.799Z,38.65
2018-09-26T10:31:30.002Z,36.40
2018-09-26T10:33:58.228Z,35.51
2018-09-26T10:36:26.451Z,36.12
2018-09-26T10:38:54.695Z,35.73
2018-09-26T10:41:22.868Z,36.90
2018-09-26T10:43:51.045Z,35.74
2018-09-26T10:46:19.253Z,33.88
2018-09-26T10:48:47.459Z,33.72
2018-09-26T10:51:15.678Z,32.74
2018-09-26T10:53:43.947Z,33.34
2018-09-26T10:56:12.174Z,32.09
2018-09-26T10:58:40.344Z,32.24
2018-09-26T11:01:08.726Z,31.66
2018-09-26T11:03:36.936Z,31.47
2018-09-26T11:06:05.124Z,33.23
2018-09-26T11:08:33.337Z,31.54
2018-09-26T11:11:01.531Z,31.52
2018-09-26T11:13:29.731Z,30.98
2018-09-26T11:15:57.919Z,32.17
2018-09-26T11:18:26.126Z,31.40
2018-09-26T11:20:54.327Z,32.85
2018-09-26T11:23:22.528Z,31.52
2018-09-26T11:25:50.831Z,31.22
2018-09-26T11:28:19.095Z,30.69
2018-09-26T11:30:47.284Z,31.55
2018-09-26T11:33:15.496Z,31.74
2018-09-26T11:35:43.675Z,30.80
2018-09-26T11:38:11.958Z,31.32
2018-09-26T11:40:40.115Z,30.68
2018-09-26T11:43:08.348Z,29.35
2018-09-26T11:45:36.552Z,30.21
2018-09-26T11:48:04.756Z,30.38
2018-09-26T11:50:32.977Z,29.88
2018-09-26T11:53:01.177Z,29.81
2018-09-26T11:55:29.400Z,29.76
2018-09-26T11:57:57.667Z,30.50
2018-09-26T12:00:25.900Z,30.39
2018-09-26T12:02:54.130Z,30.01
2018-09-26T12:05:22.373Z,30.63
2018-09-26T12:07:50.540Z,30.64
2018-09-26T12:10:18.811Z,27.66
2018-09-26T12:12:46.955Z,29.21
2018-09-26T12:15:15.152Z,28.98
2018-09-26T12:17:43.351Z,30.40
2018-09-26T12:20:11.539Z,29.32
2018-09-26T12:22:39.749Z,29.21
2018-09-26T12:25:07.925Z,28.63
2018-09-26T12:27:36.120Z,28.40
2018-09-26T12:30:04.419Z,27.24
2018-09-26T12:32:32.604Z,28.01
2018-09-26T12:35:00.842Z,28.65
2018-09-26T12:37:28.994Z,27.92
2018-09-26T12:39:57.160Z,27.53
2018-09-26T12:42:25.439Z,28.49
2018-09-26T12:44:53.522Z,28.62
2018-09-26T12:47:22.151Z,28.24
2018-09-26T12:49:50.355Z,29.37
2018-09-26T12:52:18.564Z,30.66
2018-09-26T12:54:46.741Z,28.35
2018-09-26T12:57:14.929Z,27.63
2018-09-26T12:59:43.144Z,27.97
2018-09-26T13:02:11.335Z,28.08
2018-09-26T13:04:39.511Z,28.78
2018-09-26T13:07:07.704Z,28.52
2018-09-26T13:09:35.905Z,29.21
2018-09-26T13:12:04.146Z,28.44
2018-09-26T13:14:32.297Z,29.79
2018-09-26T13:17:00.494Z,28.07
2018-09-26T13:19:28.678Z,28.58
2018-09-26T13:21:56.870Z,28.04
2018-09-26T13:24:25.123Z,28.23
2018-09-26T13:26:53.385Z,27.23
2018-09-26T13:29:21.574Z,26.64
2018-09-26T13:31:49.754Z,28.09
2018-09-26T13:34:17.974Z,27.18
2018-09-26T13:36:46.152Z,26.76
2018-09-26T13:39:14.484Z,27.78
2018-09-26T13:41:42.566Z,28.50
2018-09-26T13:44:10.858Z,27.97
2018-09-26T13:46:39.243Z,27.87
2018-09-26T13:49:07.256Z,28.96
2018-09-26T13:51:35.459Z,28.42
2018-09-26T13:54:03.696Z,30.10
2018-09-26T13:56:31.845Z,28.77
2018-09-26T13:59:00.052Z,29.74
2018-09-26T14:01:28.281Z,28.20
2018-09-26T14:03:56.466Z,28.46
2018-09-26T14:06:24.699Z,28.99
2018-09-26T14:08:52.936Z,28.07
2018-09-26T14:11:21.147Z,28.35
2018-09-26T14:13:49.386Z,28.50
2018-09-26T14:16:17.606Z,29.24
2018-09-26T14:18:45.883Z,29.06
2018-09-26T14:21:14.100Z,30.43
2018-09-26T14:23:42.322Z,29.08
2018-09-26T14:26:10.544Z,28.90
2018-09-26T14:28:38.760Z,29.19
2018-09-26T14:31:06.962Z,29.83
2018-09-26T14:33:35.187Z,30.76
2018-09-26T14:36:03.372Z,30.65
2018-09-26T14:38:31.557Z,30.83
2018-09-26T14:40:59.811Z,30.45
2018-09-26T14:43:28.004Z,29.46
2018-09-26T14:45:56.294Z,29.76
2018-09-26T14:48:24.420Z,31.15
2018-09-26T14:50:52.663Z,30.15
2018-09-26T14:53:20.873Z,31.50
2018-09-26T14:55:49.236Z,33.13
2018-09-26T14:58:17.467Z,31.58
2018-09-26T15:00:45.611Z,32.29
2018-09-26T15:03:13.880Z,30.84
2018-09-26T15:05:42.097Z,30.84
2018-09-26T15:08:10.411Z,30.94
2018-09-26T15:10:38.607Z,30.07
2018-09-26T15:13:06.870Z,30.06
2018-09-26T15:15:35.108Z,31.03
2018-09-26T15:18:03.303Z,32.39
2018-09-26T15:20:31.551Z,32.72
2018-09-26T15:22:59.707Z,31.40
2018-09-26T15:25:27.902Z,31.52
2018-09-26T15:27:56.295Z,30.92
2018-09-26T15:30:24.527Z,31.15
2018-09-26T15:32:52.837Z,32.99
2018-09-26T15:35:21.087Z,31.27
2018-09-26T15:37:49.582Z,31.29
2018-09-26T15:40:18.031Z,31.57
2018-09-26T15:42:46.159Z,31.91
2018-09-26T15:45:14.591Z,33.42
2018-09-26T15:47:42.799Z,33.70
2018-09-26T15:50:11.147Z,32.98
2018-09-26T15:52:39.358Z,32.08
2018-09-26T15:55:07.655Z,32.92
2018-09-26T15:57:35.990Z,34.59
2018-09-26T16:00:04.335Z,35.71
2018-09-26T16:02:32.592Z,35.67
2018-09-26T16:05:00.766Z,35.59
2018-09-26T16:07:29.036Z,36.89
2018-09-26T16:09:57.353Z,36.59
2018-09-26T16:12:25.640Z,35.37
2018-09-26T16:14:53.869Z,36.06
2018-09-26T16:17:22.115Z,37.17
2018-09-26T16:19:50.450Z,37.35
2018-09-26T16:22:18.706Z,34.96
2018-09-26T16:24:46.898Z,36.95
2018-09-26T16:27:15.135Z,34.25
2018-09-26T16:29:43.371Z,34.38
2018-09-26T16:32:11.649Z,35.97
2018-09-26T16:34:39.767Z,34.09
2018-09-26T16:37:07.950Z,33.86
2018-09-26T16:39:36.211Z,33.92
2018-09-26T16:42:04.298Z,35.81
2018-09-26T16:44:32.491Z,35.92
2018-09-26T16:47:00.699Z,36.26
2018-09-26T16:49:28.913Z,37.02
2018-09-26T16:51:57.098Z,36.78
2018-09-26T16:54:25.349Z,37.35
2018-09-26T16:56:53.480Z,39.24
2018-09-26T16:59:21.671Z,40.24
2018-09-26T17:01:49.846Z,40.05
2018-09-26T17:04:18.123Z,40.54
2018-09-26T17:06:46.251Z,41.17
2018-09-26T17:09:14.431Z,41.93
2018-09-26T17:11:42.603Z,42.64
2018-09-26T17:14:11.400Z,43.33
2018-09-26T17:16:39.567Z,44.53
2018-09-26T17:19:07.790Z,45.26
2018-09-26T17:21:35.971Z,45.76
2018-09-26T17:24:04.276Z,45.46
2018-09-26T17:26:32.432Z,44.90
2018-09-26T17:29:00.636Z,45.71
2018-09-26T17:31:28.823Z,46.17
2018-09-26T17:33:57.026Z,45.91
2018-09-26T17:36:25.261Z,46.03
2018-09-26T17:38:53.400Z,45.70
2018-09-26T17:41:21.622Z,44.41
2018-09-26T17:43:49.844Z,45.36
2018-09-26T17:46:18.093Z,45.16
2018-09-26T17:48:46.240Z,46.66
2018-09-26T17:51:14.427Z,48.00
2018-09-26T17:53:42.619Z,48.21
2018-09-26T17:56:10.827Z,48.58
2018-09-26T17:58:39.019Z,49.36
2018-09-26T18:01:07.431Z,50.27
2018-09-26T18:03:35.644Z,50.79
2018-09-26T18:06:03.863Z,51.36
2018-09-26T18:08:32.108Z,51.25
2018-09-26T18:11:00.259Z,51.73
2018-09-26T18:13:28.466Z,51.77
2018-09-26T18:15:56.636Z,51.48
2018-09-26T18:18:24.826Z,51.77
2018-09-26T18:20:53.028Z,52.03
2018-09-26T18:23:21.267Z,52.17
2018-09-26T18:25:49.610Z,52.62
2018-09-26T18:28:17.913Z,52.41
2018-09-26T18:30:46.091Z,52.55
2018-09-26T18:33:14.349Z,52.90
2018-09-26T18:35:43.528Z,52.70
2018-09-26T18:38:12.544Z,52.41
2018-09-26T18:40:41.343Z,52.69
2018-09-26T18:43:09.639Z,52.89
2018-09-26T18:45:37.987Z,52.15
2018-09-26T18:48:06.427Z,52.46
2018-09-26T18:50:35.145Z,50.71
2018-09-26T18:53:03.429Z,50.32
2018-09-26T18:55:32.512Z,50.76
2018-09-26T18:58:01.602Z,51.95
2018-09-26T19:00:32.003Z,52.65
2018-09-26T19:03:01.301Z,52.87
2018-09-26T19:05:30.433Z,53.14
2018-09-26T19:07:59.411Z,53.32
2018-09-26T19:10:29.018Z,53.49
2018-09-26T19:12:57.247Z,53.50
2018-09-26T19:15:25.493Z,51.73
2018-09-26T19:17:53.924Z,51.10
2018-09-26T19:20:22.281Z,51.61
2018-09-26T19:22:51.234Z,51.99
2018-09-26T19:25:20.104Z,50.62
2018-09-26T19:27:49.152Z,50.95
2018-09-26T19:30:18.259Z,52.17
2018-09-26T19:32:46.807Z,50.74
2018-09-26T19:35:16.119Z,50.01
2018-09-26T19:37:45.171Z,49.64
2018-09-26T19:40:13.960Z,49.23
2018-09-26T19:42:43.024Z,48.82
2018-09-26T19:45:11.366Z,50.23
2018-09-26T19:47:39.542Z,51.03
2018-09-26T19:50:09.699Z,52.11
2018-09-26T19:52:38.721Z,52.47
2018-09-26T19:55:08.964Z,52.58
2018-09-26T19:57:37.257Z,53.02
2018-09-26T20:00:07.236Z,53.32
2018-09-26T20:02:35.524Z,52.53
2018-09-26T20:05:04.732Z,51.42
2018-09-26T20:07:34.737Z,52.19
2018-09-26T20:10:02.961Z,52.12
2018-09-26T20:12:31.183Z,51.05
2018-09-26T20:15:00.423Z,50.52
2018-09-26T20:17:28.739Z,50.90
2018-09-26T20:19:57.052Z,52.08
2018-09-26T20:22:27.132Z,53.02
2018-09-26T20:24:55.382Z,53.16
2018-09-26T20:27:23.679Z,52.04
2018-09-26T20:29:52.945Z,51.89
2018-09-26T20:32:21.223Z,52.43
2018-09-26T20:34:49.403Z,51.94
2018-09-26T20:37:17.796Z,51.42
2018-09-26T20:39:46.004Z,53.04
2018-09-26T20:42:14.223Z,53.59
2018-09-26T20:44:42.414Z,54.02
2018-09-26T20:47:10.644Z,54.84
2018-09-26T20:49:38.832Z,55.50
2018-09-26T20:52:07.204Z,55.69
2018-09-26T20:54:35.390Z,53.99
2018-09-26T20:57:03.631Z,54.12
2018-09-26T20:59:32.177Z,54.40
2018-09-26T21:02:00.403Z,55.46
2018-09-26T21:04:28.622Z,54.67
2018-09-26T21:06:56.863Z,54.06
2018-09-26T21:09:25.099Z,53.70
2018-09-26T21:11:53.435Z,55.26
2018-09-26T21:14:21.575Z,56.00
2018-09-26T21:16:49.766Z,56.25
2018-09-26T21:19:17.963Z,56.83
2018-09-26T21:21:46.167Z,56.93
2018-09-26T21:24:14.401Z,55.19
2018-09-26T21:26:42.620Z,54.81
2018-09-26T21:29:10.839Z,54.43
2018-09-26T21:31:39.087Z,55.09
2018-09-26T21:34:07.296Z,55.29
2018-09-26T21:36:35.504Z,55.23
2018-09-26T21:39:05.755Z,55.92
2018-09-26T21:41:33.931Z,56.30
2018-09-26T21:44:02.166Z,56.88
2018-09-26T21:46:30.444Z,57.46
2018-09-26T21:48:58.709Z,57.68
2018-09-26T21:51:26.911Z,57.68
2018-09-26T21:53:55.147Z,56.62
2018-09-26T21:56:23.367Z,56.28
2018-09-26T21:58:51.583Z,56.06
2018-09-26T22:01:19.803Z,55.53
2018-09-26T22:03:48.047Z,55.59
2018-09-26T22:06:16.265Z,56.53
2018-09-26T22:08:44.475Z,57.10
2018-09-26T22:11:12.694Z,57.65
2018-09-26T22:13:40.882Z,58.06
2018-09-26T22:16:09.194Z,58.66
2018-09-26T22:18:37.386Z,58.94
2018-09-26T22:21:05.640Z,59.19
2018-09-26T22:23:34.055Z,59.38
2018-09-26T22:26:02.139Z,58.96
2018-09-26T22:28:30.384Z,58.54
2018-09-26T22:30:58.600Z,58.98
2018-09-26T22:33:26.842Z,59.27
2018-09-26T22:35:55.073Z,59.53
2018-09-26T22:38:23.271Z,59.78
2018-09-26T22:40:51.502Z,59.00
2018-09-26T22:43:19.852Z,59.68
2018-09-26T22:45:48.074Z,60.18
2018-09-26T22:48:16.256Z,59.79
2018-09-26T22:50:44.474Z,59.72
2018-09-26T22:53:12.699Z,60.08
2018-09-26T22:55:40.992Z,60.15
2018-09-26T22:58:09.205Z,60.33
2018-09-26T23:00:37.368Z,60.54
2018-09-26T23:03:05.817Z,60.61
2018-09-26T23:05:34.034Z,60.69
2018-09-26T23:08:02.256Z,60.83
2018-09-26T23:10:30.480Z,61.02
2018-09-26T23:12:58.700Z,60.87
2018-09-26T23:15:26.927Z,60.83
2018-09-26T23:17:55.155Z,60.70
2018-09-26T23:20:23.413Z,60.45
2018-09-26T23:22:51.610Z,60.19
2018-09-26T23:25:19.795Z,59.71
2018-09-26T23:27:48.116Z,59.24
2018-09-26T23:30:16.363Z,59.68
2018-09-26T23:32:44.614Z,59.68
2018-09-26T23:35:12.842Z,60.03
2018-09-26T23:37:41.082Z,59.77
2018-09-26T23:40:09.362Z,59.97
2018-09-26T23:42:37.551Z,59.33
2018-09-26T23:45:05.771Z,59.34
2018-09-26T23:47:33.978Z,59.44
2018-09-26T23:50:02.179Z,58.74
2018-09-26T23:52:30.429Z,59.14
2018-09-26T23:54:58.657Z,59.67
2018-09-26T23:57:26.905Z,58.61
2018-09-26T23:59:55.101Z,58.68
